sensor_id;sensor_type;location;lat;lon;timestamp;temperature;humidity
48019;DHT22;33786;48.690;9.562;2022-07-05T00:01:13;15.60;99.90
48019;DHT22;33786;48.690;9.562;2022-07-05T00:03:40;15.60;99.90
48019;DHT22;33786;48.690;9.562;2022-07-05T00:06:07;15.60;99.90
48019;DHT22;33786;48.690;9.562;2022-07-05T00:08:34;15.60;99.90
48019;DHT22;33786;48.690;9.562;2022-07-05T00:11:01;15.40;99.90
48019;DHT22;33786;48.690;9.562;2022-07-05T00:13:27;15.40;99.90
48019;DHT22;33786;48.690;9.562;2022-07-05T00:15:54;15.40;99.90
48019;DHT22;33786;48.690;9.562;2022-07-05T00:18:21;15.30;99.90
48019;DHT22;33786;48.690;9.562;2022-07-05T00:20:47;15.30;99.90
48019;DHT22;33786;48.690;9.562;2022-07-05T00:23:14;15.30;99.90
48019;DHT22;33786;48.690;9.562;2022-07-05T00:25:41;15.20;99.90
48019;DHT22;33786;48.690;9.562;2022-07-05T00:28:07;15.20;99.90
48019;DHT22;33786;48.690;9.562;2022-07-05T00:30:34;15.20;99.90
48019;DHT22;33786;48.690;9.562;2022-07-05T00:33:01;15.10;99.90
48019;DHT22;33786;48.690;9.562;2022-07-05T00:35:28;15.10;99.90
48019;DHT22;33786;48.690;9.562;2022-07-05T00:37:54;15.10;99.90
48019;DHT22;33786;48.690;9.562;2022-07-05T00:40:21;15.10;99.90
48019;DHT22;33786;48.690;9.562;2022-07-05T00:42:48;15.00;99.90
48019;DHT22;33786;48.690;9.562;2022-07-05T00:45:14;15.00;99.90
48019;DHT22;33786;48.690;9.562;2022-07-05T00:47:41;14.90;99.90
48019;DHT22;33786;48.690;9.562;2022-07-05T00:50:08;14.90;99.90
48019;DHT22;33786;48.690;9.562;2022-07-05T00:52:35;14.80;99.90
48019;DHT22;33786;48.690;9.562;2022-07-05T00:55:02;14.80;99.90
48019;DHT22;33786;48.690;9.562;2022-07-05T00:57:29;14.80;99.90
48019;DHT22;33786;48.690;9.562;2022-07-05T00:59:56;14.80;99.90
48019;DHT22;33786;48.690;9.562;2022-07-05T01:02:23;14.70;99.90
48019;DHT22;33786;48.690;9.562;2022-07-05T01:04:50;14.70;99.90
48019;DHT22;33786;48.690;9.562;2022-07-05T01:07:18;14.60;99.90
48019;DHT22;33786;48.690;9.562;2022-07-05T01:09:45;14.50;99.90
48019;DHT22;33786;48.690;9.562;2022-07-05T01:12:12;14.60;99.90
48019;DHT22;33786;48.690;9.562;2022-07-05T01:14:40;14.40;99.90
48019;DHT22;33786;48.690;9.562;2022-07-05T01:17:07;14.50;99.90
48019;DHT22;33786;48.690;9.562;2022-07-05T01:19:34;14.50;99.90
48019;DHT22;33786;48.690;9.562;2022-07-05T01:22:01;14.40;99.90
48019;DHT22;33786;48.690;9.562;2022-07-05T01:24:31;14.40;99.90
48019;DHT22;33786;48.690;9.562;2022-07-05T01:26:58;14.40;99.90
48019;DHT22;33786;48.690;9.562;2022-07-05T01:29:25;14.30;99.90
48019;DHT22;33786;48.690;9.562;2022-07-05T01:31:52;14.30;99.90
48019;DHT22;33786;48.690;9.562;2022-07-05T01:34:19;14.30;99.90
48019;DHT22;33786;48.690;9.562;2022-07-05T01:36:45;14.30;99.90
48019;DHT22;33786;48.690;9.562;2022-07-05T01:39:12;14.20;99.90
48019;DHT22;33786;48.690;9.562;2022-07-05T01:41:39;14.10;99.90
48019;DHT22;33786;48.690;9.562;2022-07-05T01:44:06;14.00;99.90
48019;DHT22;33786;48.690;9.562;2022-07-05T01:46:32;13.90;99.90
48019;DHT22;33786;48.690;9.562;2022-07-05T01:49:02;13.90;99.90
48019;DHT22;33786;48.690;9.562;2022-07-05T01:51:32;13.90;99.90
48019;DHT22;33786;48.690;9.562;2022-07-05T01:53:59;14.00;99.90
48019;DHT22;33786;48.690;9.562;2022-07-05T01:56:26;13.90;99.90
48019;DHT22;33786;48.690;9.562;2022-07-05T01:58:53;13.90;99.90
48019;DHT22;33786;48.690;9.562;2022-07-05T02:01:36;13.90;99.90
48019;DHT22;33786;48.690;9.562;2022-07-05T02:04:04;13.90;99.90
48019;DHT22;33786;48.690;9.562;2022-07-05T02:06:31;13.90;99.90
48019;DHT22;33786;48.690;9.562;2022-07-05T02:08:59;14.00;99.90
48019;DHT22;33786;48.690;9.562;2022-07-05T02:11:26;13.90;99.90
48019;DHT22;33786;48.690;9.562;2022-07-05T02:13:53;14.00;99.90
48019;DHT22;33786;48.690;9.562;2022-07-05T02:16:23;13.90;99.90
48019;DHT22;33786;48.690;9.562;2022-07-05T02:18:50;13.90;99.90
48019;DHT22;33786;48.690;9.562;2022-07-05T02:21:17;13.80;99.90
48019;DHT22;33786;48.690;9.562;2022-07-05T02:23:44;13.70;99.90
48019;DHT22;33786;48.690;9.562;2022-07-05T02:26:11;13.80;99.90
48019;DHT22;33786;48.690;9.562;2022-07-05T02:28:37;13.70;99.90
48019;DHT22;33786;48.690;9.562;2022-07-05T02:31:04;13.70;99.90
48019;DHT22;33786;48.690;9.562;2022-07-05T02:33:31;13.60;99.90
48019;DHT22;33786;48.690;9.562;2022-07-05T02:36:04;13.60;99.90
48019;DHT22;33786;48.690;9.562;2022-07-05T02:38:31;13.60;99.90
48019;DHT22;33786;48.690;9.562;2022-07-05T02:40:58;13.60;99.90
48019;DHT22;33786;48.690;9.562;2022-07-05T02:43:25;13.60;99.90
48019;DHT22;33786;48.690;9.562;2022-07-05T02:45:51;13.60;99.90
48019;DHT22;33786;48.690;9.562;2022-07-05T02:48:18;13.50;99.90
48019;DHT22;33786;48.690;9.562;2022-07-05T02:50:45;13.50;99.90
48019;DHT22;33786;48.690;9.562;2022-07-05T02:53:13;13.50;99.90
48019;DHT22;33786;48.690;9.562;2022-07-05T02:55:40;13.50;99.90
48019;DHT22;33786;48.690;9.562;2022-07-05T02:58:07;13.50;99.90
48019;DHT22;33786;48.690;9.562;2022-07-05T03:00:33;13.40;99.90
48019;DHT22;33786;48.690;9.562;2022-07-05T03:03:00;13.40;99.90
48019;DHT22;33786;48.690;9.562;2022-07-05T03:05:27;13.30;99.90
48019;DHT22;33786;48.690;9.562;2022-07-05T03:07:54;13.30;99.90
48019;DHT22;33786;48.690;9.562;2022-07-05T03:10:21;13.30;99.90
48019;DHT22;33786;48.690;9.562;2022-07-05T03:12:47;13.20;99.90
48019;DHT22;33786;48.690;9.562;2022-07-05T03:15:14;13.20;99.90
48019;DHT22;33786;48.690;9.562;2022-07-05T03:17:41;13.10;99.90
48019;DHT22;33786;48.690;9.562;2022-07-05T03:20:08;13.20;99.90
48019;DHT22;33786;48.690;9.562;2022-07-05T03:22:35;13.10;99.90
48019;DHT22;33786;48.690;9.562;2022-07-05T03:25:01;13.10;99.90
48019;DHT22;33786;48.690;9.562;2022-07-05T03:27:29;13.10;99.90
48019;DHT22;33786;48.690;9.562;2022-07-05T03:29:55;13.10;99.90
48019;DHT22;33786;48.690;9.562;2022-07-05T03:32:22;13.10;99.90
48019;DHT22;33786;48.690;9.562;2022-07-05T03:34:49;13.20;99.90
48019;DHT22;33786;48.690;9.562;2022-07-05T03:37:15;13.20;99.90
48019;DHT22;33786;48.690;9.562;2022-07-05T03:39:42;13.20;99.90
48019;DHT22;33786;48.690;9.562;2022-07-05T03:42:09;13.20;99.90
48019;DHT22;33786;48.690;9.562;2022-07-05T03:44:36;13.10;99.90
48019;DHT22;33786;48.690;9.562;2022-07-05T03:47:03;13.10;99.90
48019;DHT22;33786;48.690;9.562;2022-07-05T03:49:29;13.20;99.90
48019;DHT22;33786;48.690;9.562;2022-07-05T03:51:56;13.30;99.90
48019;DHT22;33786;48.690;9.562;2022-07-05T03:54:23;13.50;99.90
48019;DHT22;33786;48.690;9.562;2022-07-05T03:56:50;14.20;99.90
48019;DHT22;33786;48.690;9.562;2022-07-05T03:59:17;15.10;99.90
48019;DHT22;33786;48.690;9.562;2022-07-05T04:01:43;16.20;99.90
48019;DHT22;33786;48.690;9.562;2022-07-05T04:04:10;17.40;99.90
48019;DHT22;33786;48.690;9.562;2022-07-05T04:06:37;18.50;99.90
48019;DHT22;33786;48.690;9.562;2022-07-05T04:09:04;19.40;99.90
48019;DHT22;33786;48.690;9.562;2022-07-05T04:11:30;20.20;99.90
48019;DHT22;33786;48.690;9.562;2022-07-05T04:13:57;20.90;99.60
48019;DHT22;33786;48.690;9.562;2022-07-05T04:16:24;21.80;97.90
48019;DHT22;33786;48.690;9.562;2022-07-05T04:18:52;22.70;95.90
48019;DHT22;33786;48.690;9.562;2022-07-05T04:21:19;23.10;94.80
48019;DHT22;33786;48.690;9.562;2022-07-05T04:23:46;23.90;93.00
48019;DHT22;33786;48.690;9.562;2022-07-05T04:26:12;24.40;91.90
48019;DHT22;33786;48.690;9.562;2022-07-05T04:28:39;25.10;90.40
48019;DHT22;33786;48.690;9.562;2022-07-05T04:31:06;25.50;88.50
48019;DHT22;33786;48.690;9.562;2022-07-05T04:33:32;25.90;85.40
48019;DHT22;33786;48.690;9.562;2022-07-05T04:35:59;26.30;84.30
48019;DHT22;33786;48.690;9.562;2022-07-05T04:38:26;27.20;81.40
48019;DHT22;33786;48.690;9.562;2022-07-05T04:40:53;27.70;79.90
48019;DHT22;33786;48.690;9.562;2022-07-05T04:43:19;28.10;77.90
48019;DHT22;33786;48.690;9.562;2022-07-05T04:45:46;28.80;76.10
48019;DHT22;33786;48.690;9.562;2022-07-05T04:48:12;29.40;73.50
48019;DHT22;33786;48.690;9.562;2022-07-05T04:50:39;29.80;71.80
48019;DHT22;33786;48.690;9.562;2022-07-05T04:53:06;30.20;70.90
48019;DHT22;33786;48.690;9.562;2022-07-05T04:55:33;30.70;68.80
48019;DHT22;33786;48.690;9.562;2022-07-05T04:58:00;30.80;68.10
48019;DHT22;33786;48.690;9.562;2022-07-05T05:00:26;30.80;68.10
48019;DHT22;33786;48.690;9.562;2022-07-05T05:02:53;30.80;67.40
48019;DHT22;33786;48.690;9.562;2022-07-05T05:05:20;30.80;66.50
48019;DHT22;33786;48.690;9.562;2022-07-05T05:07:46;30.90;66.40
48019;DHT22;33786;48.690;9.562;2022-07-05T05:10:13;31.20;65.60
48019;DHT22;33786;48.690;9.562;2022-07-05T05:12:40;31.70;64.90
48019;DHT22;33786;48.690;9.562;2022-07-05T05:15:07;31.10;65.70
48019;DHT22;33786;48.690;9.562;2022-07-05T05:17:38;30.90;65.70
48019;DHT22;33786;48.690;9.562;2022-07-05T05:20:06;31.00;65.40
48019;DHT22;33786;48.690;9.562;2022-07-05T05:22:33;32.00;64.80
48019;DHT22;33786;48.690;9.562;2022-07-05T05:25:00;31.50;64.90
48019;DHT22;33786;48.690;9.562;2022-07-05T05:27:27;31.80;63.70
48019;DHT22;33786;48.690;9.562;2022-07-05T05:29:54;32.20;63.00
48019;DHT22;33786;48.690;9.562;2022-07-05T05:32:20;32.90;62.20
48019;DHT22;33786;48.690;9.562;2022-07-05T05:34:47;33.10;61.80
48019;DHT22;33786;48.690;9.562;2022-07-05T05:37:14;33.50;60.90
48019;DHT22;33786;48.690;9.562;2022-07-05T05:39:41;33.80;60.30
48019;DHT22;33786;48.690;9.562;2022-07-05T05:42:08;33.80;60.20
48019;DHT22;33786;48.690;9.562;2022-07-05T05:44:35;34.40;59.30
48019;DHT22;33786;48.690;9.562;2022-07-05T05:47:01;34.70;58.40
48019;DHT22;33786;48.690;9.562;2022-07-05T05:49:28;34.30;60.40
48019;DHT22;33786;48.690;9.562;2022-07-05T05:51:55;34.80;59.40
48019;DHT22;33786;48.690;9.562;2022-07-05T05:54:21;33.80;60.70
48019;DHT22;33786;48.690;9.562;2022-07-05T05:56:48;33.60;60.40
48019;DHT22;33786;48.690;9.562;2022-07-05T05:59:15;33.40;61.50
48019;DHT22;33786;48.690;9.562;2022-07-05T06:01:42;34.10;61.10
48019;DHT22;33786;48.690;9.562;2022-07-05T06:04:08;35.00;59.10
48019;DHT22;33786;48.690;9.562;2022-07-05T06:06:40;35.20;59.10
48019;DHT22;33786;48.690;9.562;2022-07-05T06:09:06;35.10;59.30
48019;DHT22;33786;48.690;9.562;2022-07-05T06:11:33;34.80;59.20
48019;DHT22;33786;48.690;9.562;2022-07-05T06:14:00;35.30;58.80
48019;DHT22;33786;48.690;9.562;2022-07-05T06:16:26;35.40;57.90
48019;DHT22;33786;48.690;9.562;2022-07-05T06:18:53;35.50;56.80
48019;DHT22;33786;48.690;9.562;2022-07-05T06:21:20;35.10;56.80
48019;DHT22;33786;48.690;9.562;2022-07-05T06:23:47;35.00;57.60
48019;DHT22;33786;48.690;9.562;2022-07-05T06:26:13;34.80;57.00
48019;DHT22;33786;48.690;9.562;2022-07-05T06:28:40;35.00;57.00
48019;DHT22;33786;48.690;9.562;2022-07-05T06:31:07;35.10;57.60
48019;DHT22;33786;48.690;9.562;2022-07-05T06:33:34;36.10;56.50
48019;DHT22;33786;48.690;9.562;2022-07-05T06:36:00;35.90;56.40
48019;DHT22;33786;48.690;9.562;2022-07-05T06:38:27;36.10;54.50
48019;DHT22;33786;48.690;9.562;2022-07-05T06:40:54;35.90;55.20
48019;DHT22;33786;48.690;9.562;2022-07-05T06:43:23;36.50;55.40
48019;DHT22;33786;48.690;9.562;2022-07-05T06:45:49;37.10;53.60
48019;DHT22;33786;48.690;9.562;2022-07-05T06:48:16;36.50;55.30
48019;DHT22;33786;48.690;9.562;2022-07-05T06:50:43;37.40;53.90
48019;DHT22;33786;48.690;9.562;2022-07-05T06:53:10;37.30;52.10
48019;DHT22;33786;48.690;9.562;2022-07-05T06:55:38;37.00;52.00
48019;DHT22;33786;48.690;9.562;2022-07-05T06:58:18;37.00;52.10
48019;DHT22;33786;48.690;9.562;2022-07-05T07:00:45;36.80;52.50
48019;DHT22;33786;48.690;9.562;2022-07-05T07:03:32;36.80;52.90
48019;DHT22;33786;48.690;9.562;2022-07-05T07:06:19;36.30;52.00
48019;DHT22;33786;48.690;9.562;2022-07-05T07:08:46;36.60;51.40
48019;DHT22;33786;48.690;9.562;2022-07-05T07:11:30;37.00;51.20
48019;DHT22;33786;48.690;9.562;2022-07-05T07:13:57;36.50;51.60
48019;DHT22;33786;48.690;9.562;2022-07-05T07:16:24;36.50;51.30
48019;DHT22;33786;48.690;9.562;2022-07-05T07:18:51;36.80;51.30
48019;DHT22;33786;48.690;9.562;2022-07-05T07:21:37;36.20;50.90
48019;DHT22;33786;48.690;9.562;2022-07-05T07:24:05;36.40;52.10
48019;DHT22;33786;48.690;9.562;2022-07-05T07:26:32;37.00;51.00
48019;DHT22;33786;48.690;9.562;2022-07-05T07:29:19;35.90;50.60
48019;DHT22;33786;48.690;9.562;2022-07-05T07:31:45;35.30;52.30
48019;DHT22;33786;48.690;9.562;2022-07-05T07:34:12;35.80;51.30
48019;DHT22;33786;48.690;9.562;2022-07-05T07:36:39;35.90;51.70
48019;DHT22;33786;48.690;9.562;2022-07-05T07:39:05;35.60;52.30
48019;DHT22;33786;48.690;9.562;2022-07-05T07:41:32;34.90;53.40
48019;DHT22;33786;48.690;9.562;2022-07-05T07:43:59;34.90;53.10
48019;DHT22;33786;48.690;9.562;2022-07-05T07:46:26;34.70;51.70
48019;DHT22;33786;48.690;9.562;2022-07-05T07:48:54;35.20;52.20
48019;DHT22;33786;48.690;9.562;2022-07-05T07:51:21;35.40;51.00
48019;DHT22;33786;48.690;9.562;2022-07-05T07:53:48;35.00;52.30
48019;DHT22;33786;48.690;9.562;2022-07-05T07:56:14;34.80;51.90
48019;DHT22;33786;48.690;9.562;2022-07-05T07:58:41;34.50;52.20
48019;DHT22;33786;48.690;9.562;2022-07-05T08:01:08;34.40;50.60
48019;DHT22;33786;48.690;9.562;2022-07-05T08:03:37;34.90;52.80
48019;DHT22;33786;48.690;9.562;2022-07-05T08:06:05;34.50;53.10
48019;DHT22;33786;48.690;9.562;2022-07-05T08:08:32;34.30;52.40
48019;DHT22;33786;48.690;9.562;2022-07-05T08:10:58;33.80;53.50
48019;DHT22;33786;48.690;9.562;2022-07-05T08:13:26;32.80;54.60
48019;DHT22;33786;48.690;9.562;2022-07-05T08:15:52;32.30;55.70
48019;DHT22;33786;48.690;9.562;2022-07-05T08:18:19;32.20;55.90
48019;DHT22;33786;48.690;9.562;2022-07-05T08:21:05;32.60;55.50
48019;DHT22;33786;48.690;9.562;2022-07-05T08:23:50;32.70;56.20
48019;DHT22;33786;48.690;9.562;2022-07-05T08:26:17;32.70;57.30
48019;DHT22;33786;48.690;9.562;2022-07-05T08:28:43;32.80;55.90
48019;DHT22;33786;48.690;9.562;2022-07-05T08:31:32;32.00;55.80
48019;DHT22;33786;48.690;9.562;2022-07-05T08:33:59;31.30;57.00
48019;DHT22;33786;48.690;9.562;2022-07-05T08:36:25;31.00;59.10
48019;DHT22;33786;48.690;9.562;2022-07-05T08:38:52;30.30;60.60
48019;DHT22;33786;48.690;9.562;2022-07-05T08:41:20;30.00;60.30
48019;DHT22;33786;48.690;9.562;2022-07-05T08:43:47;29.60;61.20
48019;DHT22;33786;48.690;9.562;2022-07-05T08:46:15;29.50;63.70
48019;DHT22;33786;48.690;9.562;2022-07-05T08:48:42;29.50;63.90
48019;DHT22;33786;48.690;9.562;2022-07-05T08:51:17;29.50;59.50
48019;DHT22;33786;48.690;9.562;2022-07-05T08:53:44;28.90;61.00
48019;DHT22;33786;48.690;9.562;2022-07-05T08:56:12;28.40;64.40
48019;DHT22;33786;48.690;9.562;2022-07-05T08:58:48;28.40;62.40
48019;DHT22;33786;48.690;9.562;2022-07-05T09:01:17;28.50;61.20
48019;DHT22;33786;48.690;9.562;2022-07-05T09:03:51;28.80;64.20
48019;DHT22;33786;48.690;9.562;2022-07-05T09:06:19;28.80;63.00
48019;DHT22;33786;48.690;9.562;2022-07-05T09:08:47;28.80;63.40
48019;DHT22;33786;48.690;9.562;2022-07-05T09:11:15;29.10;63.00
48019;DHT22;33786;48.690;9.562;2022-07-05T09:13:43;29.00;64.40
48019;DHT22;33786;48.690;9.562;2022-07-05T09:16:31;28.90;63.30
48019;DHT22;33786;48.690;9.562;2022-07-05T09:19:05;29.00;64.50
48019;DHT22;33786;48.690;9.562;2022-07-05T09:21:32;29.00;64.20
48019;DHT22;33786;48.690;9.562;2022-07-05T09:24:00;28.70;64.00
48019;DHT22;33786;48.690;9.562;2022-07-05T09:29:00;28.90;63.90
48019;DHT22;33786;48.690;9.562;2022-07-05T09:31:47;29.00;64.90
48019;DHT22;33786;48.690;9.562;2022-07-05T09:34:16;28.90;67.20
48019;DHT22;33786;48.690;9.562;2022-07-05T09:36:46;29.10;68.90
48019;DHT22;33786;48.690;9.562;2022-07-05T09:39:13;29.10;65.20
48019;DHT22;33786;48.690;9.562;2022-07-05T09:41:40;28.80;61.80
48019;DHT22;33786;48.690;9.562;2022-07-05T09:44:07;28.60;62.50
48019;DHT22;33786;48.690;9.562;2022-07-05T09:46:33;28.90;66.50
48019;DHT22;33786;48.690;9.562;2022-07-05T09:49:00;29.60;64.60
48019;DHT22;33786;48.690;9.562;2022-07-05T09:51:27;29.70;64.10
48019;DHT22;33786;48.690;9.562;2022-07-05T09:54:14;29.90;64.20
48019;DHT22;33786;48.690;9.562;2022-07-05T09:56:44;29.70;64.10
48019;DHT22;33786;48.690;9.562;2022-07-05T09:59:11;29.60;64.10
48019;DHT22;33786;48.690;9.562;2022-07-05T10:01:38;29.40;65.80
48019;DHT22;33786;48.690;9.562;2022-07-05T10:04:05;29.20;65.40
48019;DHT22;33786;48.690;9.562;2022-07-05T10:06:34;29.10;64.50
48019;DHT22;33786;48.690;9.562;2022-07-05T10:09:01;29.50;65.20
48019;DHT22;33786;48.690;9.562;2022-07-05T10:11:28;30.00;65.10
48019;DHT22;33786;48.690;9.562;2022-07-05T10:13:55;29.90;57.50
48019;DHT22;33786;48.690;9.562;2022-07-05T10:16:24;29.60;55.70
48019;DHT22;33786;48.690;9.562;2022-07-05T10:18:52;29.10;56.20
48019;DHT22;33786;48.690;9.562;2022-07-05T10:21:19;29.20;57.70
48019;DHT22;33786;48.690;9.562;2022-07-05T10:23:47;29.20;55.60
48019;DHT22;33786;48.690;9.562;2022-07-05T10:26:15;29.50;58.10
48019;DHT22;33786;48.690;9.562;2022-07-05T10:28:46;30.10;55.90
48019;DHT22;33786;48.690;9.562;2022-07-05T10:31:14;30.00;56.90
48019;DHT22;33786;48.690;9.562;2022-07-05T10:33:41;29.70;56.50
48019;DHT22;33786;48.690;9.562;2022-07-05T10:36:11;29.80;56.00
48019;DHT22;33786;48.690;9.562;2022-07-05T10:38:42;29.70;52.70
48019;DHT22;33786;48.690;9.562;2022-07-05T10:41:11;29.80;54.30
48019;DHT22;33786;48.690;9.562;2022-07-05T10:43:38;30.10;53.40
48019;DHT22;33786;48.690;9.562;2022-07-05T10:46:05;29.80;51.10
48019;DHT22;33786;48.690;9.562;2022-07-05T10:48:35;29.60;51.70
48019;DHT22;33786;48.690;9.562;2022-07-05T11:03:39;29.20;53.10
48019;DHT22;33786;48.690;9.562;2022-07-05T11:06:07;29.60;52.90
48019;DHT22;33786;48.690;9.562;2022-07-05T11:09:13;29.40;52.40
48019;DHT22;33786;48.690;9.562;2022-07-05T11:11:27;29.40;54.10
48019;DHT22;33786;48.690;9.562;2022-07-05T11:13:54;29.00;55.20
48019;DHT22;33786;48.690;9.562;2022-07-05T11:19:07;29.60;56.10
48019;DHT22;33786;48.690;9.562;2022-07-05T11:21:35;29.70;55.60
48019;DHT22;33786;48.690;9.562;2022-07-05T11:26:45;29.90;53.30
48019;DHT22;33786;48.690;9.562;2022-07-05T11:32:06;29.90;56.00
48019;DHT22;33786;48.690;9.562;2022-07-05T11:34:34;29.00;55.10
48019;DHT22;33786;48.690;9.562;2022-07-05T11:42:33;29.60;53.70
48019;DHT22;33786;48.690;9.562;2022-07-05T11:45:09;29.70;54.10
48019;DHT22;33786;48.690;9.562;2022-07-05T11:47:36;29.40;53.10
48019;DHT22;33786;48.690;9.562;2022-07-05T11:50:09;29.20;51.40
48019;DHT22;33786;48.690;9.562;2022-07-05T11:52:36;28.90;53.90
48019;DHT22;33786;48.690;9.562;2022-07-05T11:55:05;28.80;54.60
48019;DHT22;33786;48.690;9.562;2022-07-05T11:57:32;28.90;54.60
48019;DHT22;33786;48.690;9.562;2022-07-05T11:59:59;29.40;56.00
48019;DHT22;33786;48.690;9.562;2022-07-05T12:02:26;29.90;53.90
48019;DHT22;33786;48.690;9.562;2022-07-05T12:04:54;29.80;53.60
48019;DHT22;33786;48.690;9.562;2022-07-05T12:07:31;30.00;54.30
48019;DHT22;33786;48.690;9.562;2022-07-05T12:09:58;29.70;52.80
48019;DHT22;33786;48.690;9.562;2022-07-05T12:13:05;29.80;51.90
48019;DHT22;33786;48.690;9.562;2022-07-05T12:15:33;30.20;53.20
48019;DHT22;33786;48.690;9.562;2022-07-05T12:18:01;29.80;50.40
48019;DHT22;33786;48.690;9.562;2022-07-05T12:20:30;29.60;51.20
48019;DHT22;33786;48.690;9.562;2022-07-05T12:22:57;29.70;52.50
48019;DHT22;33786;48.690;9.562;2022-07-05T12:25:28;29.80;50.20
48019;DHT22;33786;48.690;9.562;2022-07-05T12:27:56;29.60;50.80
48019;DHT22;33786;48.690;9.562;2022-07-05T12:30:23;29.40;51.70
48019;DHT22;33786;48.690;9.562;2022-07-05T12:33:04;29.30;51.20
48019;DHT22;33786;48.690;9.562;2022-07-05T12:35:44;29.60;51.90
48019;DHT22;33786;48.690;9.562;2022-07-05T12:38:12;29.90;54.40
48019;DHT22;33786;48.690;9.562;2022-07-05T12:40:45;29.70;53.10
48019;DHT22;33786;48.690;9.562;2022-07-05T12:43:16;29.50;52.70
48019;DHT22;33786;48.690;9.562;2022-07-05T12:45:43;29.50;52.90
48019;DHT22;33786;48.690;9.562;2022-07-05T12:48:11;29.70;52.40
48019;DHT22;33786;48.690;9.562;2022-07-05T12:50:45;29.80;51.40
48019;DHT22;33786;48.690;9.562;2022-07-05T12:53:32;29.80;54.20
48019;DHT22;33786;48.690;9.562;2022-07-05T12:56:22;29.70;51.10
48019;DHT22;33786;48.690;9.562;2022-07-05T12:59:28;29.80;51.80
48019;DHT22;33786;48.690;9.562;2022-07-05T13:01:54;29.80;50.10
48019;DHT22;33786;48.690;9.562;2022-07-05T13:04:21;30.00;52.90
48019;DHT22;33786;48.690;9.562;2022-07-05T13:06:49;29.90;50.40
48019;DHT22;33786;48.690;9.562;2022-07-05T13:09:34;30.00;48.20
48019;DHT22;33786;48.690;9.562;2022-07-05T13:12:34;29.80;48.10
48019;DHT22;33786;48.690;9.562;2022-07-05T13:14:55;29.70;51.40
48019;DHT22;33786;48.690;9.562;2022-07-05T13:17:23;28.90;50.20
48019;DHT22;33786;48.690;9.562;2022-07-05T13:19:51;29.20;49.90
48019;DHT22;33786;48.690;9.562;2022-07-05T13:22:18;29.50;50.90
48019;DHT22;33786;48.690;9.562;2022-07-05T13:24:45;29.40;50.00
48019;DHT22;33786;48.690;9.562;2022-07-05T13:27:12;29.60;51.30
48019;DHT22;33786;48.690;9.562;2022-07-05T13:29:39;29.20;52.50
48019;DHT22;33786;48.690;9.562;2022-07-05T13:32:06;29.20;54.10
48019;DHT22;33786;48.690;9.562;2022-07-05T13:34:33;29.50;53.90
48019;DHT22;33786;48.690;9.562;2022-07-05T13:36:59;29.40;49.80
48019;DHT22;33786;48.690;9.562;2022-07-05T13:39:28;29.20;52.60
48019;DHT22;33786;48.690;9.562;2022-07-05T13:41:57;29.30;51.60
48019;DHT22;33786;48.690;9.562;2022-07-05T13:44:24;29.30;49.40
48019;DHT22;33786;48.690;9.562;2022-07-05T13:46:51;29.20;49.30
48019;DHT22;33786;48.690;9.562;2022-07-05T13:49:18;29.20;48.80
48019;DHT22;33786;48.690;9.562;2022-07-05T13:51:46;28.90;51.50
48019;DHT22;33786;48.690;9.562;2022-07-05T13:54:12;29.30;52.70
48019;DHT22;33786;48.690;9.562;2022-07-05T13:56:39;29.20;50.80
48019;DHT22;33786;48.690;9.562;2022-07-05T13:59:06;29.30;51.20
48019;DHT22;33786;48.690;9.562;2022-07-05T14:01:33;29.30;51.70
48019;DHT22;33786;48.690;9.562;2022-07-05T14:04:01;28.90;49.10
48019;DHT22;33786;48.690;9.562;2022-07-05T14:06:31;28.60;50.10
48019;DHT22;33786;48.690;9.562;2022-07-05T14:08:58;28.20;49.20
48019;DHT22;33786;48.690;9.562;2022-07-05T14:11:25;28.00;50.90
48019;DHT22;33786;48.690;9.562;2022-07-05T14:13:55;28.20;51.80
48019;DHT22;33786;48.690;9.562;2022-07-05T14:16:22;28.30;51.50
48019;DHT22;33786;48.690;9.562;2022-07-05T14:18:49;28.30;51.50
48019;DHT22;33786;48.690;9.562;2022-07-05T14:21:17;28.50;52.30
48019;DHT22;33786;48.690;9.562;2022-07-05T14:23:44;28.70;49.40
48019;DHT22;33786;48.690;9.562;2022-07-05T14:26:14;29.00;52.00
48019;DHT22;33786;48.690;9.562;2022-07-05T14:28:41;28.90;51.60
48019;DHT22;33786;48.690;9.562;2022-07-05T14:31:08;29.00;53.70
48019;DHT22;33786;48.690;9.562;2022-07-05T14:33:35;29.00;52.20
48019;DHT22;33786;48.690;9.562;2022-07-05T14:36:03;28.80;50.50
48019;DHT22;33786;48.690;9.562;2022-07-05T14:38:31;28.90;50.40
48019;DHT22;33786;48.690;9.562;2022-07-05T14:40:57;28.90;51.60
48019;DHT22;33786;48.690;9.562;2022-07-05T14:43:24;29.20;51.30
48019;DHT22;33786;48.690;9.562;2022-07-05T14:45:51;29.00;51.10
48019;DHT22;33786;48.690;9.562;2022-07-05T14:48:18;29.10;54.60
48019;DHT22;33786;48.690;9.562;2022-07-05T14:50:46;28.90;53.00
48019;DHT22;33786;48.690;9.562;2022-07-05T14:53:18;28.60;51.40
48019;DHT22;33786;48.690;9.562;2022-07-05T14:55:45;28.40;51.20
48019;DHT22;33786;48.690;9.562;2022-07-05T14:58:12;28.20;52.20
48019;DHT22;33786;48.690;9.562;2022-07-05T15:00:39;27.90;52.10
48019;DHT22;33786;48.690;9.562;2022-07-05T15:03:05;28.10;53.20
48019;DHT22;33786;48.690;9.562;2022-07-05T15:05:35;28.10;53.10
48019;DHT22;33786;48.690;9.562;2022-07-05T15:08:02;28.20;54.50
48019;DHT22;33786;48.690;9.562;2022-07-05T15:10:28;28.40;53.20
48019;DHT22;33786;48.690;9.562;2022-07-05T15:12:55;28.40;54.00
48019;DHT22;33786;48.690;9.562;2022-07-05T15:15:22;28.30;52.50
48019;DHT22;33786;48.690;9.562;2022-07-05T15:17:49;28.50;53.00
48019;DHT22;33786;48.690;9.562;2022-07-05T15:20:16;28.30;52.70
48019;DHT22;33786;48.690;9.562;2022-07-05T15:22:45;28.30;54.10
48019;DHT22;33786;48.690;9.562;2022-07-05T15:25:11;28.20;54.60
48019;DHT22;33786;48.690;9.562;2022-07-05T15:27:38;28.20;55.10
48019;DHT22;33786;48.690;9.562;2022-07-05T15:30:05;28.00;53.10
48019;DHT22;33786;48.690;9.562;2022-07-05T15:32:32;28.10;53.90
48019;DHT22;33786;48.690;9.562;2022-07-05T15:34:59;28.30;53.10
48019;DHT22;33786;48.690;9.562;2022-07-05T15:37:25;28.50;51.90
48019;DHT22;33786;48.690;9.562;2022-07-05T15:39:52;28.50;50.70
48019;DHT22;33786;48.690;9.562;2022-07-05T15:42:19;28.40;52.30
48019;DHT22;33786;48.690;9.562;2022-07-05T15:44:46;28.20;52.30
48019;DHT22;33786;48.690;9.562;2022-07-05T15:47:25;28.10;54.70
48019;DHT22;33786;48.690;9.562;2022-07-05T15:49:54;28.20;54.20
48019;DHT22;33786;48.690;9.562;2022-07-05T15:52:20;28.40;53.80
48019;DHT22;33786;48.690;9.562;2022-07-05T15:54:48;28.40;55.60
48019;DHT22;33786;48.690;9.562;2022-07-05T15:57:17;28.10;54.70
48019;DHT22;33786;48.690;9.562;2022-07-05T15:59:44;27.90;53.70
48019;DHT22;33786;48.690;9.562;2022-07-05T16:02:11;27.90;53.80
48019;DHT22;33786;48.690;9.562;2022-07-05T16:04:38;28.00;54.10
48019;DHT22;33786;48.690;9.562;2022-07-05T16:07:05;28.10;54.80